sensor_id;sensor_type;location;lat;lon;timestamp;temperature;humidity
7163;DHT22;3623;47.098;15.446;2023-08-17T00:01:41;17.10;99.90
7163;DHT22;3623;47.098;15.446;2023-08-17T00:04:08;17.20;99.90
7163;DHT22;3623;47.098;15.446;2023-08-17T00:06:35;17.10;99.90
7163;DHT22;3623;47.098;15.446;2023-08-17T00:09:02;17.20;99.90
7163;DHT22;3623;47.098;15.446;2023-08-17T00:11:30;17.00;99.90
7163;DHT22;3623;47.098;15.446;2023-08-17T00:13:57;16.90;99.90
7163;DHT22;3623;47.098;15.446;2023-08-17T00:16:25;16.80;99.90
7163;DHT22;3623;47.098;15.446;2023-08-17T00:18:52;16.70;99.90
7163;DHT22;3623;47.098;15.446;2023-08-17T00:21:19;16.70;99.90
7163;DHT22;3623;47.098;15.446;2023-08-17T00:23:47;16.60;99.90
7163;DHT22;3623;47.098;15.446;2023-08-17T00:26:14;16.70;99.90
7163;DHT22;3623;47.098;15.446;2023-08-17T00:28:41;16.60;99.90
7163;DHT22;3623;47.098;15.446;2023-08-17T00:31:08;16.60;99.90
7163;DHT22;3623;47.098;15.446;2023-08-17T00:33:36;16.60;99.90
7163;DHT22;3623;47.098;15.446;2023-08-17T00:36:04;16.60;99.90
7163;DHT22;3623;47.098;15.446;2023-08-17T00:38:31;16.60;99.90
7163;DHT22;3623;47.098;15.446;2023-08-17T00:40:58;16.70;99.90
7163;DHT22;3623;47.098;15.446;2023-08-17T00:43:25;16.70;99.90
7163;DHT22;3623;47.098;15.446;2023-08-17T00:45:52;16.80;99.90
7163;DHT22;3623;47.098;15.446;2023-08-17T00:48:20;16.80;99.90
7163;DHT22;3623;47.098;15.446;2023-08-17T00:50:49;16.80;99.90
7163;DHT22;3623;47.098;15.446;2023-08-17T00:53:17;16.80;99.90
7163;DHT22;3623;47.098;15.446;2023-08-17T00:55:45;16.80;99.90
7163;DHT22;3623;47.098;15.446;2023-08-17T00:58:13;16.90;99.90
7163;DHT22;3623;47.098;15.446;2023-08-17T01:00:40;17.00;99.90
7163;DHT22;3623;47.098;15.446;2023-08-17T01:03:08;17.00;99.90
7163;DHT22;3623;47.098;15.446;2023-08-17T01:05:35;17.00;99.90
7163;DHT22;3623;47.098;15.446;2023-08-17T01:08:05;17.00;99.90
7163;DHT22;3623;47.098;15.446;2023-08-17T01:10:39;17.00;99.90
7163;DHT22;3623;47.098;15.446;2023-08-17T01:13:11;17.00;99.90
7163;DHT22;3623;47.098;15.446;2023-08-17T01:15:42;17.00;99.90
7163;DHT22;3623;47.098;15.446;2023-08-17T01:18:17;17.00;99.90
7163;DHT22;3623;47.098;15.446;2023-08-17T01:20:45;17.00;99.90
7163;DHT22;3623;47.098;15.446;2023-08-17T01:23:16;16.90;99.90
7163;DHT22;3623;47.098;15.446;2023-08-17T01:25:43;16.90;99.90
7163;DHT22;3623;47.098;15.446;2023-08-17T01:28:10;16.90;99.90
7163;DHT22;3623;47.098;15.446;2023-08-17T01:30:42;16.90;99.90
7163;DHT22;3623;47.098;15.446;2023-08-17T01:33:13;16.90;99.90
7163;DHT22;3623;47.098;15.446;2023-08-17T01:35:46;16.90;99.90
7163;DHT22;3623;47.098;15.446;2023-08-17T01:38:18;16.90;99.90
7163;DHT22;3623;47.098;15.446;2023-08-17T01:40:47;17.00;99.90
7163;DHT22;3623;47.098;15.446;2023-08-17T01:43:16;17.00;99.90
7163;DHT22;3623;47.098;15.446;2023-08-17T01:45:44;17.00;99.90
7163;DHT22;3623;47.098;15.446;2023-08-17T01:48:11;17.00;99.90
7163;DHT22;3623;47.098;15.446;2023-08-17T01:50:38;17.00;99.90
7163;DHT22;3623;47.098;15.446;2023-08-17T01:53:05;16.90;99.90
7163;DHT22;3623;47.098;15.446;2023-08-17T01:55:34;17.00;99.90
7163;DHT22;3623;47.098;15.446;2023-08-17T01:58:01;17.00;99.90
7163;DHT22;3623;47.098;15.446;2023-08-17T02:00:28;17.00;99.90
7163;DHT22;3623;47.098;15.446;2023-08-17T02:02:55;17.00;99.90
7163;DHT22;3623;47.098;15.446;2023-08-17T02:05:22;17.00;99.90
7163;DHT22;3623;47.098;15.446;2023-08-17T02:07:49;16.90;99.90
7163;DHT22;3623;47.098;15.446;2023-08-17T02:10:16;16.80;99.90
7163;DHT22;3623;47.098;15.446;2023-08-17T02:12:45;16.80;99.90
7163;DHT22;3623;47.098;15.446;2023-08-17T02:15:12;16.80;99.90
7163;DHT22;3623;47.098;15.446;2023-08-17T02:17:39;16.80;99.90
7163;DHT22;3623;47.098;15.446;2023-08-17T02:20:08;16.80;99.90
7163;DHT22;3623;47.098;15.446;2023-08-17T02:22:36;16.80;99.90
7163;DHT22;3623;47.098;15.446;2023-08-17T02:25:03;16.80;99.90
7163;DHT22;3623;47.098;15.446;2023-08-17T02:27:31;16.70;99.90
7163;DHT22;3623;47.098;15.446;2023-08-17T02:29:59;16.80;99.90
7163;DHT22;3623;47.098;15.446;2023-08-17T02:32:26;16.80;99.90
7163;DHT22;3623;47.098;15.446;2023-08-17T02:34:53;16.70;99.90
7163;DHT22;3623;47.098;15.446;2023-08-17T02:37:20;16.70;99.90
7163;DHT22;3623;47.098;15.446;2023-08-17T02:39:47;16.60;99.90
7163;DHT22;3623;47.098;15.446;2023-08-17T02:42:14;16.70;99.90
7163;DHT22;3623;47.098;15.446;2023-08-17T02:44:41;16.70;99.90
7163;DHT22;3623;47.098;15.446;2023-08-17T02:47:10;16.70;99.90
7163;DHT22;3623;47.098;15.446;2023-08-17T02:49:37;16.70;99.90
7163;DHT22;3623;47.098;15.446;2023-08-17T02:52:05;16.70;99.90
7163;DHT22;3623;47.098;15.446;2023-08-17T02:54:32;16.80;99.90
7163;DHT22;3623;47.098;15.446;2023-08-17T02:56:59;16.70;99.90
7163;DHT22;3623;47.098;15.446;2023-08-17T02:59:26;16.70;99.90
7163;DHT22;3623;47.098;15.446;2023-08-17T03:01:54;16.70;99.90
7163;DHT22;3623;47.098;15.446;2023-08-17T03:04:23;16.70;99.90
7163;DHT22;3623;47.098;15.446;2023-08-17T03:06:50;16.80;99.90
7163;DHT22;3623;47.098;15.446;2023-08-17T03:09:17;16.80;99.90
7163;DHT22;3623;47.098;15.446;2023-08-17T03:11:44;16.70;99.90
7163;DHT22;3623;47.098;15.446;2023-08-17T03:14:11;16.70;99.90
7163;DHT22;3623;47.098;15.446;2023-08-17T03:16:38;16.70;99.90
7163;DHT22;3623;47.098;15.446;2023-08-17T03:19:06;16.70;99.90
7163;DHT22;3623;47.098;15.446;2023-08-17T03:21:38;16.70;99.90
7163;DHT22;3623;47.098;15.446;2023-08-17T03:24:06;16.70;99.90
7163;DHT22;3623;47.098;15.446;2023-08-17T03:26:34;16.60;99.90
7163;DHT22;3623;47.098;15.446;2023-08-17T03:29:01;16.60;99.90
7163;DHT22;3623;47.098;15.446;2023-08-17T03:31:28;16.60;99.90
7163;DHT22;3623;47.098;15.446;2023-08-17T03:33:55;16.60;99.90
7163;DHT22;3623;47.098;15.446;2023-08-17T03:36:22;16.60;99.90
7163;DHT22;3623;47.098;15.446;2023-08-17T03:38:50;16.60;99.90
7163;DHT22;3623;47.098;15.446;2023-08-17T03:41:18;16.60;99.90
7163;DHT22;3623;47.098;15.446;2023-08-17T03:43:45;16.60;99.90
7163;DHT22;3623;47.098;15.446;2023-08-17T03:46:13;16.60;99.90
7163;DHT22;3623;47.098;15.446;2023-08-17T03:48:40;16.50;99.90
7163;DHT22;3623;47.098;15.446;2023-08-17T03:51:07;16.60;99.90
7163;DHT22;3623;47.098;15.446;2023-08-17T03:53:34;16.50;99.90
7163;DHT22;3623;47.098;15.446;2023-08-17T03:56:03;16.60;99.90
7163;DHT22;3623;47.098;15.446;2023-08-17T03:58:30;16.50;99.90
7163;DHT22;3623;47.098;15.446;2023-08-17T04:01:00;16.50;99.90
7163;DHT22;3623;47.098;15.446;2023-08-17T04:03:27;16.60;99.90
7163;DHT22;3623;47.098;15.446;2023-08-17T04:05:54;16.60;99.90
7163;DHT22;3623;47.098;15.446;2023-08-17T04:08:21;16.50;99.90
7163;DHT22;3623;47.098;15.446;2023-08-17T04:10:48;16.60;99.90
7163;DHT22;3623;47.098;15.446;2023-08-17T04:13:16;16.60;99.90
7163;DHT22;3623;47.098;15.446;2023-08-17T04:15:43;16.70;99.90
7163;DHT22;3623;47.098;15.446;2023-08-17T04:18:11;16.60;99.90
7163;DHT22;3623;47.098;15.446;2023-08-17T04:20:38;16.60;99.90
7163;DHT22;3623;47.098;15.446;2023-08-17T04:23:05;16.60;99.90
7163;DHT22;3623;47.098;15.446;2023-08-17T04:25:32;16.70;99.90
7163;DHT22;3623;47.098;15.446;2023-08-17T04:28:00;16.60;99.90
7163;DHT22;3623;47.098;15.446;2023-08-17T04:30:28;16.60;99.90
7163;DHT22;3623;47.098;15.446;2023-08-17T04:32:55;16.60;99.90
7163;DHT22;3623;47.098;15.446;2023-08-17T04:35:22;16.60;99.90
7163;DHT22;3623;47.098;15.446;2023-08-17T04:37:49;16.60;99.90
7163;DHT22;3623;47.098;15.446;2023-08-17T04:40:17;16.60;99.90
7163;DHT22;3623;47.098;15.446;2023-08-17T04:42:44;16.60;99.90
7163;DHT22;3623;47.098;15.446;2023-08-17T04:45:11;16.70;99.90
7163;DHT22;3623;47.098;15.446;2023-08-17T04:47:39;16.70;99.90
7163;DHT22;3623;47.098;15.446;2023-08-17T04:50:07;16.80;99.90
7163;DHT22;3623;47.098;15.446;2023-08-17T04:52:34;16.90;99.90
7163;DHT22;3623;47.098;15.446;2023-08-17T04:55:01;16.90;99.90
7163;DHT22;3623;47.098;15.446;2023-08-17T04:57:29;17.00;99.90
7163;DHT22;3623;47.098;15.446;2023-08-17T04:59:56;17.10;99.90
7163;DHT22;3623;47.098;15.446;2023-08-17T05:02:23;17.10;99.90
7163;DHT22;3623;47.098;15.446;2023-08-17T05:04:52;17.20;99.90
7163;DHT22;3623;47.098;15.446;2023-08-17T05:07:19;17.30;99.90
7163;DHT22;3623;47.098;15.446;2023-08-17T05:09:46;17.40;99.90
7163;DHT22;3623;47.098;15.446;2023-08-17T05:12:13;17.50;99.90
7163;DHT22;3623;47.098;15.446;2023-08-17T05:14:40;17.60;99.90
7163;DHT22;3623;47.098;15.446;2023-08-17T05:17:07;17.70;99.90
7163;DHT22;3623;47.098;15.446;2023-08-17T05:19:34;17.70;99.90
7163;DHT22;3623;47.098;15.446;2023-08-17T05:22:02;17.90;99.90
7163;DHT22;3623;47.098;15.446;2023-08-17T05:24:29;18.00;99.90
7163;DHT22;3623;47.098;15.446;2023-08-17T05:26:56;18.10;99.90
7163;DHT22;3623;47.098;15.446;2023-08-17T05:29:24;18.20;99.90
7163;DHT22;3623;47.098;15.446;2023-08-17T05:31:51;18.30;99.90
7163;DHT22;3623;47.098;15.446;2023-08-17T05:34:18;18.50;99.90
7163;DHT22;3623;47.098;15.446;2023-08-17T05:36:45;18.40;99.90
7163;DHT22;3623;47.098;15.446;2023-08-17T05:39:13;18.40;99.90
7163;DHT22;3623;47.098;15.446;2023-08-17T05:41:40;18.30;99.90
7163;DHT22;3623;47.098;15.446;2023-08-17T05:44:07;18.30;99.90
7163;DHT22;3623;47.098;15.446;2023-08-17T05:46:35;18.30;99.90
7163;DHT22;3623;47.098;15.446;2023-08-17T05:49:02;18.30;99.90
7163;DHT22;3623;47.098;15.446;2023-08-17T05:51:29;18.30;99.90
7163;DHT22;3623;47.098;15.446;2023-08-17T05:53:57;18.40;99.90
7163;DHT22;3623;47.098;15.446;2023-08-17T05:56:25;18.40;99.90
7163;DHT22;3623;47.098;15.446;2023-08-17T05:58:53;18.50;99.90
7163;DHT22;3623;47.098;15.446;2023-08-17T06:01:20;18.60;99.90
7163;DHT22;3623;47.098;15.446;2023-08-17T06:03:47;18.70;99.90
7163;DHT22;3623;47.098;15.446;2023-08-17T06:06:15;18.80;99.90
7163;DHT22;3623;47.098;15.446;2023-08-17T06:08:42;18.90;99.90
7163;DHT22;3623;47.098;15.446;2023-08-17T06:11:09;19.00;99.90
7163;DHT22;3623;47.098;15.446;2023-08-17T06:13:38;19.00;99.90
7163;DHT22;3623;47.098;15.446;2023-08-17T06:16:05;19.10;99.90
7163;DHT22;3623;47.098;15.446;2023-08-17T06:18:32;19.20;99.90
7163;DHT22;3623;47.098;15.446;2023-08-17T06:20:59;19.20;99.90
7163;DHT22;3623;47.098;15.446;2023-08-17T06:23:26;19.30;99.90
7163;DHT22;3623;47.098;15.446;2023-08-17T06:25:57;19.40;99.90
7163;DHT22;3623;47.098;15.446;2023-08-17T06:28:24;19.60;99.90
7163;DHT22;3623;47.098;15.446;2023-08-17T06:30:53;19.70;99.90
7163;DHT22;3623;47.098;15.446;2023-08-17T06:33:20;19.80;99.90
7163;DHT22;3623;47.098;15.446;2023-08-17T06:35:49;19.80;99.90
7163;DHT22;3623;47.098;15.446;2023-08-17T06:38:16;19.90;99.90
7163;DHT22;3623;47.098;15.446;2023-08-17T06:40:44;20.00;99.90
7163;DHT22;3623;47.098;15.446;2023-08-17T06:43:11;20.00;99.90
7163;DHT22;3623;47.098;15.446;2023-08-17T06:45:38;19.80;99.90
7163;DHT22;3623;47.098;15.446;2023-08-17T06:48:07;19.70;99.90
7163;DHT22;3623;47.098;15.446;2023-08-17T06:50:34;19.70;99.90
7163;DHT22;3623;47.098;15.446;2023-08-17T06:53:01;19.70;99.90
7163;DHT22;3623;47.098;15.446;2023-08-17T06:55:29;19.70;99.90
7163;DHT22;3623;47.098;15.446;2023-08-17T06:57:57;19.80;99.90
7163;DHT22;3623;47.098;15.446;2023-08-17T07:00:24;19.90;99.90
7163;DHT22;3623;47.098;15.446;2023-08-17T07:02:51;20.00;99.90
7163;DHT22;3623;47.098;15.446;2023-08-17T07:05:20;20.10;99.90
7163;DHT22;3623;47.098;15.446;2023-08-17T07:07:47;20.10;99.90
7163;DHT22;3623;47.098;15.446;2023-08-17T07:10:14;20.20;99.90
7163;DHT22;3623;47.098;15.446;2023-08-17T07:12:41;20.20;99.90
7163;DHT22;3623;47.098;15.446;2023-08-17T07:15:09;20.20;99.90
7163;DHT22;3623;47.098;15.446;2023-08-17T07:17:36;20.20;99.90
7163;DHT22;3623;47.098;15.446;2023-08-17T07:20:03;20.30;99.90
7163;DHT22;3623;47.098;15.446;2023-08-17T07:22:34;20.40;99.90
7163;DHT22;3623;47.098;15.446;2023-08-17T07:25:01;20.50;99.90
7163;DHT22;3623;47.098;15.446;2023-08-17T07:27:29;20.80;99.90
7163;DHT22;3623;47.098;15.446;2023-08-17T07:29:56;21.10;99.90
7163;DHT22;3623;47.098;15.446;2023-08-17T07:32:23;20.90;99.90
7163;DHT22;3623;47.098;15.446;2023-08-17T07:34:51;20.90;99.90
7163;DHT22;3623;47.098;15.446;2023-08-17T07:37:19;20.90;99.90
7163;DHT22;3623;47.098;15.446;2023-08-17T07:39:47;21.10;99.90
7163;DHT22;3623;47.098;15.446;2023-08-17T07:42:14;21.30;99.90
7163;DHT22;3623;47.098;15.446;2023-08-17T07:44:42;21.40;99.90
7163;DHT22;3623;47.098;15.446;2023-08-17T07:47:09;21.50;99.90
7163;DHT22;3623;47.098;15.446;2023-08-17T07:49:36;21.50;99.90
7163;DHT22;3623;47.098;15.446;2023-08-17T07:52:03;21.70;99.90
7163;DHT22;3623;47.098;15.446;2023-08-17T07:54:30;21.80;99.90
7163;DHT22;3623;47.098;15.446;2023-08-17T07:56:59;21.80;99.90
7163;DHT22;3623;47.098;15.446;2023-08-17T07:59:26;22.00;99.90
7163;DHT22;3623;47.098;15.446;2023-08-17T08:01:53;22.10;99.90
7163;DHT22;3623;47.098;15.446;2023-08-17T08:04:20;22.10;99.90
7163;DHT22;3623;47.098;15.446;2023-08-17T08:06:47;22.30;99.90
7163;DHT22;3623;47.098;15.446;2023-08-17T08:09:14;22.30;99.90
7163;DHT22;3623;47.098;15.446;2023-08-17T08:11:41;22.30;99.90
7163;DHT22;3623;47.098;15.446;2023-08-17T08:14:10;22.30;99.90
7163;DHT22;3623;47.098;15.446;2023-08-17T08:16:37;22.40;99.90
7163;DHT22;3623;47.098;15.446;2023-08-17T08:19:04;22.40;99.90
7163;DHT22;3623;47.098;15.446;2023-08-17T08:21:31;22.40;99.90
7163;DHT22;3623;47.098;15.446;2023-08-17T08:23:58;22.60;99.90
7163;DHT22;3623;47.098;15.446;2023-08-17T08:26:25;22.70;99.90
7163;DHT22;3623;47.098;15.446;2023-08-17T08:28:52;22.70;99.90
7163;DHT22;3623;47.098;15.446;2023-08-17T08:31:21;22.80;99.90
7163;DHT22;3623;47.098;15.446;2023-08-17T08:33:48;22.90;99.90
7163;DHT22;3623;47.098;15.446;2023-08-17T08:36:15;22.90;99.90
7163;DHT22;3623;47.098;15.446;2023-08-17T08:38:42;22.90;99.90
7163;DHT22;3623;47.098;15.446;2023-08-17T08:41:11;22.80;99.90
7163;DHT22;3623;47.098;15.446;2023-08-17T08:43:39;22.90;99.90
7163;DHT22;3623;47.098;15.446;2023-08-17T08:46:06;22.90;99.90
7163;DHT22;3623;47.098;15.446;2023-08-17T08:48:34;22.90;99.90
7163;DHT22;3623;47.098;15.446;2023-08-17T08:51:03;23.00;99.90
7163;DHT22;3623;47.098;15.446;2023-08-17T08:53:38;23.10;99.90
7163;DHT22;3623;47.098;15.446;2023-08-17T08:56:10;22.90;99.90
7163;DHT22;3623;47.098;15.446;2023-08-17T08:58:38;23.10;99.90
7163;DHT22;3623;47.098;15.446;2023-08-17T09:01:08;23.30;99.90
7163;DHT22;3623;47.098;15.446;2023-08-17T09:03:38;23.40;99.90
7163;DHT22;3623;47.098;15.446;2023-08-17T09:06:05;23.40;99.90
7163;DHT22;3623;47.098;15.446;2023-08-17T09:08:32;23.50;99.90
7163;DHT22;3623;47.098;15.446;2023-08-17T09:11:00;23.50;99.90
7163;DHT22;3623;47.098;15.446;2023-08-17T09:13:27;23.60;99.90
7163;DHT22;3623;47.098;15.446;2023-08-17T09:15:57;23.60;99.90
7163;DHT22;3623;47.098;15.446;2023-08-17T09:18:25;23.60;99.90
7163;DHT22;3623;47.098;15.446;2023-08-17T09:20:54;23.70;99.90
7163;DHT22;3623;47.098;15.446;2023-08-17T09:23:22;23.50;99.90
7163;DHT22;3623;47.098;15.446;2023-08-17T09:25:50;23.40;99.90
7163;DHT22;3623;47.098;15.446;2023-08-17T09:28:24;23.40;99.90
7163;DHT22;3623;47.098;15.446;2023-08-17T09:30:56;23.60;99.90
7163;DHT22;3623;47.098;15.446;2023-08-17T09:33:24;23.60;99.90
7163;DHT22;3623;47.098;15.446;2023-08-17T09:35:54;23.80;99.90
7163;DHT22;3623;47.098;15.446;2023-08-17T09:38:22;23.90;99.90
7163;DHT22;3623;47.098;15.446;2023-08-17T09:40:49;24.00;99.90
7163;DHT22;3623;47.098;15.446;2023-08-17T09:43:18;24.20;99.90
7163;DHT22;3623;47.098;15.446;2023-08-17T09:45:47;24.10;99.90
7163;DHT22;3623;47.098;15.446;2023-08-17T09:48:16;24.30;99.90
7163;DHT22;3623;47.098;15.446;2023-08-17T09:50:45;24.30;99.90
7163;DHT22;3623;47.098;15.446;2023-08-17T09:53:15;24.30;99.90
7163;DHT22;3623;47.098;15.446;2023-08-17T09:55:43;24.40;99.90
7163;DHT22;3623;47.098;15.446;2023-08-17T09:58:10;24.60;99.90
7163;DHT22;3623;47.098;15.446;2023-08-17T10:00:44;24.80;99.90
7163;DHT22;3623;47.098;15.446;2023-08-17T10:03:14;25.00;99.90
7163;DHT22;3623;47.098;15.446;2023-08-17T10:05:43;25.00;99.90
7163;DHT22;3623;47.098;15.446;2023-08-17T10:08:11;25.00;99.90
7163;DHT22;3623;47.098;15.446;2023-08-17T10:10:45;25.20;99.90
7163;DHT22;3623;47.098;15.446;2023-08-17T10:13:18;25.20;99.90
7163;DHT22;3623;47.098;15.446;2023-08-17T10:16:01;25.00;99.90
7163;DHT22;3623;47.098;15.446;2023-08-17T10:18:33;25.10;99.90
7163;DHT22;3623;47.098;15.446;2023-08-17T10:21:06;25.00;99.90
7163;DHT22;3623;47.098;15.446;2023-08-17T10:23:35;25.20;99.90
7163;DHT22;3623;47.098;15.446;2023-08-17T10:26:04;25.60;99.90
7163;DHT22;3623;47.098;15.446;2023-08-17T10:28:34;26.00;99.90
7163;DHT22;3623;47.098;15.446;2023-08-17T10:31:01;26.40;99.90
7163;DHT22;3623;47.098;15.446;2023-08-17T10:33:29;26.50;99.90
7163;DHT22;3623;47.098;15.446;2023-08-17T10:36:00;26.20;99.90
7163;DHT22;3623;47.098;15.446;2023-08-17T10:38:27;26.10;99.90
7163;DHT22;3623;47.098;15.446;2023-08-17T10:41:12;26.10;99.90
7163;DHT22;3623;47.098;15.446;2023-08-17T10:43:56;26.00;99.90
7163;DHT22;3623;47.098;15.446;2023-08-17T10:46:32;25.60;99.90
7163;DHT22;3623;47.098;15.446;2023-08-17T10:49:04;25.40;99.90
7163;DHT22;3623;47.098;15.446;2023-08-17T10:51:32;25.30;99.90
7163;DHT22;3623;47.098;15.446;2023-08-17T10:54:02;25.30;99.90
7163;DHT22;3623;47.098;15.446;2023-08-17T10:56:32;25.40;99.90
7163;DHT22;3623;47.098;15.446;2023-08-17T10:59:00;25.50;99.90
7163;DHT22;3623;47.098;15.446;2023-08-17T11:01:35;25.70;99.90
7163;DHT22;3623;47.098;15.446;2023-08-17T11:04:15;26.00;99.90
7163;DHT22;3623;47.098;15.446;2023-08-17T11:06:42;26.20;99.90
7163;DHT22;3623;47.098;15.446;2023-08-17T11:09:10;26.40;99.90
7163;DHT22;3623;47.098;15.446;2023-08-17T11:11:39;26.30;99.90
7163;DHT22;3623;47.098;15.446;2023-08-17T11:14:06;26.40;99.90
7163;DHT22;3623;47.098;15.446;2023-08-17T11:16:33;27.20;99.90
7163;DHT22;3623;47.098;15.446;2023-08-17T11:19:01;28.50;99.90
7163;DHT22;3623;47.098;15.446;2023-08-17T11:21:28;29.60;99.90
7163;DHT22;3623;47.098;15.446;2023-08-17T11:23:56;30.60;99.90
7163;DHT22;3623;47.098;15.446;2023-08-17T11:26:24;31.40;99.90
7163;DHT22;3623;47.098;15.446;2023-08-17T11:28:53;32.30;99.90
7163;DHT22;3623;47.098;15.446;2023-08-17T11:31:20;32.90;99.90
7163;DHT22;3623;47.098;15.446;2023-08-17T11:33:47;32.50;99.90
7163;DHT22;3623;47.098;15.446;2023-08-17T11:36:16;31.90;99.90
7163;DHT22;3623;47.098;15.446;2023-08-17T11:38:43;31.60;99.90
7163;DHT22;3623;47.098;15.446;2023-08-17T11:41:11;31.80;99.90
7163;DHT22;3623;47.098;15.446;2023-08-17T11:43:40;31.30;99.90
7163;DHT22;3623;47.098;15.446;2023-08-17T11:46:09;30.50;99.90
7163;DHT22;3623;47.098;15.446;2023-08-17T11:48:36;30.50;99.90
7163;DHT22;3623;47.098;15.446;2023-08-17T11:51:04;31.50;99.90
7163;DHT22;3623;47.098;15.446;2023-08-17T11:53:34;32.10;99.90
7163;DHT22;3623;47.098;15.446;2023-08-17T11:56:02;32.70;99.90
7163;DHT22;3623;47.098;15.446;2023-08-17T11:58:47;32.70;99.90
7163;DHT22;3623;47.098;15.446;2023-08-17T12:01:15;33.30;99.90
7163;DHT22;3623;47.098;15.446;2023-08-17T12:03:43;33.60;99.90
7163;DHT22;3623;47.098;15.446;2023-08-17T12:06:10;33.70;99.90
7163;DHT22;3623;47.098;15.446;2023-08-17T12:08:38;33.70;99.90
7163;DHT22;3623;47.098;15.446;2023-08-17T12:11:08;34.30;99.90
7163;DHT22;3623;47.098;15.446;2023-08-17T12:13:35;34.90;99.90
7163;DHT22;3623;47.098;15.446;2023-08-17T12:16:03;35.70;99.90
7163;DHT22;3623;47.098;15.446;2023-08-17T12:18:34;36.30;99.90
7163;DHT22;3623;47.098;15.446;2023-08-17T12:21:01;35.80;99.90
7163;DHT22;3623;47.098;15.446;2023-08-17T12:23:28;35.80;99.90
7163;DHT22;3623;47.098;15.446;2023-08-17T12:25:56;35.50;99.90
7163;DHT22;3623;47.098;15.446;2023-08-17T12:28:23;36.10;99.90
7163;DHT22;3623;47.098;15.446;2023-08-17T12:30:58;36.50;99.90
7163;DHT22;3623;47.098;15.446;2023-08-17T12:33:26;36.40;99.90
7163;DHT22;3623;47.098;15.446;2023-08-17T12:35:56;35.80;99.90
7163;DHT22;3623;47.098;15.446;2023-08-17T12:38:24;33.90;99.90
7163;DHT22;3623;47.098;15.446;2023-08-17T12:40:51;32.30;99.90
7163;DHT22;3623;47.098;15.446;2023-08-17T12:43:18;31.70;99.90
7163;DHT22;3623;47.098;15.446;2023-08-17T12:45:46;31.00;99.90
7163;DHT22;3623;47.098;15.446;2023-08-17T12:48:13;30.30;99.90
7163;DHT22;3623;47.098;15.446;2023-08-17T12:50:40;29.70;99.90
7163;DHT22;3623;47.098;15.446;2023-08-17T12:53:08;30.40;99.90
7163;DHT22;3623;47.098;15.446;2023-08-17T12:55:36;30.60;99.90
7163;DHT22;3623;47.098;15.446;2023-08-17T12:58:03;30.20;99.90
7163;DHT22;3623;47.098;15.446;2023-08-17T13:00:30;30.30;99.90
7163;DHT22;3623;47.098;15.446;2023-08-17T13:02:58;31.50;99.90
7163;DHT22;3623;47.098;15.446;2023-08-17T13:05:25;33.10;99.90
7163;DHT22;3623;47.098;15.446;2023-08-17T13:07:53;34.00;99.90
7163;DHT22;3623;47.098;15.446;2023-08-17T13:10:21;34.80;99.90
7163;DHT22;3623;47.098;15.446;2023-08-17T13:12:49;35.10;99.90
7163;DHT22;3623;47.098;15.446;2023-08-17T13:15:20;35.00;99.50
7163;DHT22;3623;47.098;15.446;2023-08-17T13:17:47;35.30;99.70
7163;DHT22;3623;47.098;15.446;2023-08-17T13:20:14;34.50;99.20
7163;DHT22;3623;47.098;15.446;2023-08-17T13:22:42;33.50;99.90
7163;DHT22;3623;47.098;15.446;2023-08-17T13:25:09;33.00;99.90
7163;DHT22;3623;47.098;15.446;2023-08-17T13:27:37;32.40;99.90
7163;DHT22;3623;47.098;15.446;2023-08-17T13:30:05;32.00;99.90
7163;DHT22;3623;47.098;15.446;2023-08-17T13:32:33;31.70;99.90
7163;DHT22;3623;47.098;15.446;2023-08-17T13:35:01;32.20;99.90
7163;DHT22;3623;47.098;15.446;2023-08-17T13:37:28;32.70;99.90
7163;DHT22;3623;47.098;15.446;2023-08-17T13:39:56;33.30;99.90
7163;DHT22;3623;47.098;15.446;2023-08-17T13:42:23;34.60;99.50
7163;DHT22;3623;47.098;15.446;2023-08-17T13:44:52;35.40;98.10
7163;DHT22;3623;47.098;15.446;2023-08-17T13:47:19;35.40;98.80
7163;DHT22;3623;47.098;15.446;2023-08-17T13:49:46;36.20;98.80
7163;DHT22;3623;47.098;15.446;2023-08-17T13:52:14;35.70;99.40
7163;DHT22;3623;47.098;15.446;2023-08-17T13:54:41;35.50;98.30
7163;DHT22;3623;47.098;15.446;2023-08-17T13:57:08;35.70;97.70
7163;DHT22;3623;47.098;15.446;2023-08-17T13:59:35;36.00;97.50
7163;DHT22;3623;47.098;15.446;2023-08-17T14:02:04;36.10;97.50
7163;DHT22;3623;47.098;15.446;2023-08-17T14:04:31;36.10;97.40
7163;DHT22;3623;47.098;15.446;2023-08-17T14:06:58;35.00;97.60
7163;DHT22;3623;47.098;15.446;2023-08-17T14:09:25;34.00;99.90
7163;DHT22;3623;47.098;15.446;2023-08-17T14:11:52;32.90;99.90
7163;DHT22;3623;47.098;15.446;2023-08-17T14:14:19;31.60;99.90
7163;DHT22;3623;47.098;15.446;2023-08-17T14:16:47;30.60;99.90
7163;DHT22;3623;47.098;15.446;2023-08-17T14:19:16;29.90;99.90
7163;DHT22;3623;47.098;15.446;2023-08-17T14:21:43;29.30;99.90
7163;DHT22;3623;47.098;15.446;2023-08-17T14:24:10;28.70;99.90
7163;DHT22;3623;47.098;15.446;2023-08-17T14:26:37;28.40;99.90
7163;DHT22;3623;47.098;15.446;2023-08-17T14:29:05;28.20;99.90
7163;DHT22;3623;47.098;15.446;2023-08-17T14:31:32;27.90;99.90
7163;DHT22;3623;47.098;15.446;2023-08-17T14:33:59;27.70;99.90
7163;DHT22;3623;47.098;15.446;2023-08-17T14:36:27;27.50;99.90
7163;DHT22;3623;47.098;15.446;2023-08-17T14:38:55;27.30;99.90
7163;DHT22;3623;47.098;15.446;2023-08-17T14:41:23;27.30;99.90
7163;DHT22;3623;47.098;15.446;2023-08-17T14:43:57;27.30;99.90
7163;DHT22;3623;47.098;15.446;2023-08-17T14:46:24;27.20;99.90
7163;DHT22;3623;47.098;15.446;2023-08-17T14:48:51;27.00;99.90
7163;DHT22;3623;47.098;15.446;2023-08-17T14:51:18;27.00;99.90
7163;DHT22;3623;47.098;15.446;2023-08-17T14:53:47;27.00;99.90
7163;DHT22;3623;47.098;15.446;2023-08-17T14:56:14;26.90;99.90
7163;DHT22;3623;47.098;15.446;2023-08-17T14:58:41;26.90;99.90
7163;DHT22;3623;47.098;15.446;2023-08-17T15:01:08;26.70;99.90
7163;DHT22;3623;47.098;15.446;2023-08-17T15:03:35;26.50;99.90
7163;DHT22;3623;47.098;15.446;2023-08-17T15:06:03;26.50;99.90
7163;DHT22;3623;47.098;15.446;2023-08-17T15:08:30;26.20;99.90
7163;DHT22;3623;47.098;15.446;2023-08-17T15:10:59;26.20;99.90
7163;DHT22;3623;47.098;15.446;2023-08-17T15:13:27;26.00;99.90
7163;DHT22;3623;47.098;15.446;2023-08-17T15:15:55;25.90;99.90
7163;DHT22;3623;47.098;15.446;2023-08-17T15:18:22;25.80;99.90
7163;DHT22;3623;47.098;15.446;2023-08-17T15:20:49;25.60;99.90
7163;DHT22;3623;47.098;15.446;2023-08-17T15:23:17;25.50;99.90
7163;DHT22;3623;47.098;15.446;2023-08-17T15:25:44;25.50;99.90
7163;DHT22;3623;47.098;15.446;2023-08-17T15:28:12;25.40;99.90
7163;DHT22;3623;47.098;15.446;2023-08-17T15:30:39;25.50;99.90
7163;DHT22;3623;47.098;15.446;2023-08-17T15:33:07;25.50;99.90
7163;DHT22;3623;47.098;15.446;2023-08-17T15:35:34;25.50;99.90
7163;DHT22;3623;47.098;15.446;2023-08-17T15:38:01;25.60;99.90
7163;DHT22;3623;47.098;15.446;2023-08-17T15:40:28;25.70;99.90
7163;DHT22;3623;47.098;15.446;2023-08-17T15:42:56;25.70;99.90
7163;DHT22;3623;47.098;15.446;2023-08-17T15:45:24;25.70;99.90
7163;DHT22;3623;47.098;15.446;2023-08-17T15:47:51;25.60;99.90
7163;DHT22;3623;47.098;15.446;2023-08-17T15:50:19;25.60;99.90